Time;durP1;ratioP1;P1;durP2;ratioP2;P2;SDS_P1;SDS_P2;PMS_P1;PMS_P2;Temp;Humidity;BMP_temperature;BMP_pressure;BME280_temperature;BME280_humidity;BME280_pressure;Samples;Min_cycle;Max_cycle;Signal;HPM_P1;HPM_P2
2022/12/01 00:01:06;;;;;;;310.80;62.08;;;4.50;99.90;;;;;;4966635;28;20118;-69
2022/12/01 00:03:34;;;;;;;274.88;58.65;;;4.60;99.90;;;;;;4972053;28;20466;-71
2022/12/01 00:06:03;;;;;;;227.07;57.00;;;4.70;99.90;;;;;;4972660;28;20042;-70
2022/12/01 00:08:30;;;;;;;265.27;57.78;;;4.70;99.90;;;;;;4968899;28;20245;-71
2022/12/01 00:11:08;;;;;;;267.48;58.83;;;4.70;99.90;;;;;;4951538;28;20055;-71
2022/12/01 00:13:36;;;;;;;270.40;62.92;;;4.60;99.90;;;;;;4975579;28;20050;-71
2022/12/01 00:16:14;;;;;;;328.45;65.55;;;4.50;99.90;;;;;;4970132;28;20045;-70
2022/12/01 00:18:41;;;;;;;329.65;66.18;;;4.70;99.90;;;;;;4972728;28;20046;-68
2022/12/01 00:21:17;;;;;;;347.88;68.35;;;4.70;99.90;;;;;;4970992;28;20039;-68
2022/12/01 00:23:49;;;;;;;393.05;70.82;;;4.80;99.90;;;;;;4955627;28;20582;-70
2022/12/01 00:26:16;;;;;;;442.00;78.07;;;4.80;99.90;;;;;;4954490;28;20049;-70
2022/12/01 00:28:46;;;;;;;375.40;72.70;;;4.90;99.90;;;;;;4971813;28;20038;-71
2022/12/01 00:31:13;;;;;;;355.02;68.55;;;4.80;99.90;;;;;;4970941;28;20042;-70
2022/12/01 00:33:40;;;;;;;397.80;73.85;;;4.80;99.90;;;;;;4972870;28;20146;-70
2022/12/01 00:36:07;;;;;;;284.48;64.07;;;4.70;99.90;;;;;;4969390;28;20124;-70
2022/12/01 00:38:34;;;;;;;322.88;67.10;;;4.70;99.90;;;;;;4958042;28;20081;-69
2022/12/01 00:41:01;;;;;;;341.77;71.75;;;4.70;99.90;;;;;;4951640;28;20035;-68
2022/12/01 00:43:28;;;;;;;296.92;61.90;;;4.70;99.90;;;;;;4975765;28;20046;-70
2022/12/01 00:45:55;;;;;;;286.65;64.40;;;4.80;99.90;;;;;;4955235;28;20229;-70
2022/12/01 00:48:23;;;;;;;297.25;63.67;;;4.70;99.90;;;;;;4971383;28;20416;-69
2022/12/01 00:50:52;;;;;;;263.55;62.78;;;4.80;99.90;;;;;;4968900;28;20141;-68
2022/12/01 00:53:19;;;;;;;282.45;63.83;;;4.80;99.90;;;;;;4957892;28;20145;-70
2022/12/01 00:55:46;;;;;;;327.10;69.85;;;4.80;99.90;;;;;;4968265;28;20035;-70
2022/12/01 00:58:12;;;;;;;316.70;68.07;;;4.80;99.90;;;;;;4972758;28;20069;-70
2022/12/01 01:00:39;;;;;;;369.75;74.20;;;4.70;99.90;;;;;;4953348;28;20425;-69
2022/12/01 01:03:06;;;;;;;359.30;74.00;;;4.70;99.90;;;;;;4972793;28;20030;-69
2022/12/01 01:05:37;;;;;;;395.20;78.20;;;4.70;99.90;;;;;;4975821;28;20508;-70
2022/12/01 01:08:09;;;;;;;418.50;77.55;;;4.70;99.90;;;;;;4972487;28;20053;-70
2022/12/01 01:10:44;;;;;;;460.58;77.70;;;4.70;99.90;;;;;;4973309;28;20125;-70
2022/12/01 01:13:12;;;;;;;358.52;64.57;;;4.60;99.90;;;;;;4954391;28;20046;-68
2022/12/01 01:15:39;;;;;;;461.70;78.57;;;4.50;99.90;;;;;;4958739;28;20501;-69
2022/12/01 01:18:08;;;;;;;488.85;87.68;;;4.50;99.90;;;;;;4956507;28;20050;-70
2022/12/01 01:20:35;;;;;;;468.85;83.75;;;4.60;99.90;;;;;;4972889;28;20054;-69
2022/12/01 01:23:01;;;;;;;526.88;86.78;;;4.70;99.90;;;;;;4972348;28;20486;-69
2022/12/01 01:25:30;;;;;;;541.35;87.32;;;4.80;99.90;;;;;;4973514;28;20038;-69
2022/12/01 01:27:56;;;;;;;569.47;86.82;;;4.80;99.90;;;;;;4974526;28;20177;-69
2022/12/01 01:30:23;;;;;;;589.65;92.07;;;4.80;99.90;;;;;;4956958;28;20034;-69
2022/12/01 01:32:49;;;;;;;612.30;94.38;;;4.70;99.90;;;;;;4971097;28;20050;-69
2022/12/01 01:35:16;;;;;;;556.42;95.30;;;4.70;99.90;;;;;;4974804;28;20076;-69
2022/12/01 01:37:43;;;;;;;419.40;79.00;;;4.40;99.90;;;;;;4956877;28;20042;-69
2022/12/01 01:40:10;;;;;;;473.13;86.78;;;4.40;99.90;;;;;;4948105;28;20513;-69
2022/12/01 01:42:37;;;;;;;525.33;90.35;;;4.50;99.90;;;;;;4972622;28;20046;-69
2022/12/01 01:45:16;;;;;;;518.22;88.38;;;4.40;99.90;;;;;;4971591;28;20307;-69
2022/12/01 01:47:43;;;;;;;526.58;91.80;;;4.40;99.90;;;;;;4973851;28;20456;-69
2022/12/01 01:50:13;;;;;;;495.85;89.85;;;4.50;99.90;;;;;;4970205;28;20053;-68
2022/12/01 01:52:44;;;;;;;514.78;90.72;;;4.50;99.90;;;;;;4970529;28;20259;-69
2022/12/01 01:55:12;;;;;;;442.75;86.75;;;4.40;99.90;;;;;;4972165;28;20050;-69
2022/12/01 01:57:40;;;;;;;455.08;87.38;;;4.50;99.90;;;;;;4975227;28;20050;-71
2022/12/01 02:00:10;;;;;;;400.08;79.05;;;4.40;99.90;;;;;;4973156;28;20046;-70
2022/12/01 02:02:43;;;;;;;446.75;85.53;;;4.50;99.90;;;;;;4965699;28;20068;-70
2022/12/01 02:05:43;;;;;;;326.58;73.50;;;4.40;99.90;;;;;;4972058;28;20092;-69
2022/12/01 02:08:13;;;;;;;386.10;84.20;;;4.30;99.90;;;;;;4938340;28;20077;-68
2022/12/01 02:11:06;;;;;;;397.73;87.13;;;4.30;99.90;;;;;;4971350;28;20566;-69
2022/12/01 02:13:48;;;;;;;366.25;80.90;;;4.30;99.90;;;;;;4964825;28;20365;-69
2022/12/01 02:16:26;;;;;;;358.60;84.90;;;4.40;99.90;;;;;;4970694;28;20131;-69
2022/12/01 02:19:10;;;;;;;367.60;84.00;;;4.40;99.90;;;;;;4953692;28;20050;-68
2022/12/01 02:22:03;;;;;;;338.67;83.85;;;4.40;99.90;;;;;;4956908;28;20035;-68
2022/12/01 02:24:51;;;;;;;326.67;82.00;;;4.30;99.90;;;;;;4954618;28;20068;-69
2022/12/01 02:27:55;;;;;;;337.00;80.00;;;4.30;99.90;;;;;;4953684;28;20517;-69
2022/12/01 02:30:47;;;;;;;356.23;84.18;;;4.30;99.90;;;;;;4969569;28;20061;-69
2022/12/01 02:33:26;;;;;;;364.08;86.50;;;4.40;99.90;;;;;;4953625;28;20046;-69
2022/12/01 02:36:07;;;;;;;384.30;92.03;;;4.40;99.90;;;;;;4973916;28;20197;-69
2022/12/01 02:38:50;;;;;;;381.15;91.57;;;4.40;99.90;;;;;;4966945;28;20128;-69
2022/12/01 02:41:26;;;;;;;389.80;91.38;;;4.50;99.90;;;;;;4946589;28;20114;-69
2022/12/01 02:44:06;;;;;;;392.80;96.50;;;4.50;99.90;;;;;;4952320;28;20043;-69
2022/12/01 02:46:48;;;;;;;412.92;93.78;;;4.50;99.90;;;;;;4976110;28;20038;-69
2022/12/01 02:49:23;;;;;;;436.05;95.45;;;4.50;99.90;;;;;;4962339;28;20292;-71
2022/12/01 02:51:51;;;;;;;;;;;4.40;99.90;;;;;;4977292;28;20082;-71
2022/12/01 02:54:19;;;;;;;484.90;99.85;;;4.40;99.90;;;;;;4968123;28;20009;-71
2022/12/01 02:56:51;;;;;;;440.90;98.55;;;4.40;99.90;;;;;;4955022;28;20130;-69
2022/12/01 02:59:18;;;;;;;446.58;106.07;;;4.40;99.90;;;;;;4967323;28;20073;-69
2022/12/01 03:01:58;;;;;;;378.73;97.30;;;4.50;99.90;;;;;;5017802;23;20041;-69
2022/12/01 03:04:34;;;;;;;388.70;94.65;;;4.40;99.90;;;;;;4996048;28;20041;-69
2022/12/01 03:07:36;;;;;;;325.98;86.97;;;4.30;99.90;;;;;;5014414;28;20289;-69
2022/12/01 03:10:12;;;;;;;386.83;99.28;;;4.20;99.90;;;;;;4995198;28;20527;-69
2022/12/01 03:13:20;;;;;;;372.00;93.57;;;4.20;99.90;;;;;;5014238;28;20213;-69
2022/12/01 03:15:52;;;;;;;380.63;95.25;;;4.30;99.90;;;;;;5012637;28;20046;-69
2022/12/01 03:18:38;;;;;;;380.20;95.13;;;4.30;99.90;;;;;;5013285;28;20153;-69
2022/12/01 03:21:14;;;;;;;363.70;92.13;;;4.40;99.90;;;;;;5010393;28;20156;-69
2022/12/01 03:23:47;;;;;;;347.88;87.93;;;4.30;99.90;;;;;;4994825;28;20072;-69
2022/12/01 03:26:20;;;;;;;373.53;93.93;;;4.30;99.90;;;;;;5012667;28;20523;-69
2022/12/01 03:28:52;;;;;;;376.52;99.90;;;4.20;99.90;;;;;;5012650;28;20049;-69
2022/12/01 03:31:24;;;;;;;386.25;100.07;;;4.10;99.90;;;;;;5010439;28;20072;-69
2022/12/01 03:33:56;;;;;;;342.58;92.40;;;4.10;99.90;;;;;;5018087;28;20045;-68
2022/12/01 03:36:38;;;;;;;374.45;95.70;;;4.10;99.90;;;;;;5006072;28;20126;-69
2022/12/01 03:39:13;;;;;;;350.10;94.43;;;4.10;99.90;;;;;;5022163;28;20526;-68
2022/12/01 03:41:47;;;;;;;321.60;88.13;;;4.10;99.90;;;;;;5003233;28;20303;-69
2022/12/01 03:44:19;;;;;;;322.88;85.65;;;4.20;99.90;;;;;;5014871;28;20046;-69
2022/12/01 03:47:09;;;;;;;303.42;83.82;;;4.00;99.90;;;;;;5008432;28;20041;-69
2022/12/01 03:49:37;;;;;;;303.08;81.30;;;4.00;99.90;;;;;;5018353;28;20046;-69
2022/12/01 03:52:13;;;;;;;302.58;83.40;;;3.90;99.90;;;;;;5008437;28;20392;-69
2022/12/01 03:55:18;;;;;;;304.42;82.28;;;3.90;99.90;;;;;;5018690;28;20057;-68
2022/12/01 03:58:01;;;;;;;287.80;79.75;;;4.00;99.90;;;;;;5015639;28;20041;-70
2022/12/01 04:00:30;;;;;;;304.98;84.80;;;4.00;99.90;;;;;;5010664;28;20594;-68
2022/12/01 04:02:58;;;;;;;272.13;75.00;;;3.90;99.90;;;;;;5000922;28;20037;-68
2022/12/01 04:05:26;;;;;;;304.42;82.88;;;3.90;99.90;;;;;;4997873;28;20426;-68
2022/12/01 04:07:52;;;;;;;281.10;80.13;;;3.90;99.90;;;;;;5015737;28;20384;-68
2022/12/01 04:10:19;;;;;;;259.67;77.15;;;4.00;99.90;;;;;;5016211;28;20046;-68
2022/12/01 04:12:46;;;;;;;272.50;77.55;;;4.10;99.90;;;;;;4999116;28;20301;-68
2022/12/01 04:15:13;;;;;;;251.88;78.88;;;3.90;99.90;;;;;;5014562;28;20034;-69
2022/12/01 04:17:44;;;;;;;244.07;74.13;;;3.90;99.90;;;;;;5017839;28;20037;-68
2022/12/01 04:20:13;;;;;;;254.23;73.40;;;3.90;99.90;;;;;;5015326;28;20057;-70
2022/12/01 04:22:39;;;;;;;231.68;68.75;;;3.80;99.90;;;;;;5016484;28;20045;-68
2022/12/01 04:25:09;;;;;;;236.20;71.18;;;3.80;99.90;;;;;;5014521;28;20049;-68
2022/12/01 04:27:36;;;;;;;241.90;73.25;;;3.80;99.90;;;;;;5017925;28;20544;-68
2022/12/01 04:30:05;;;;;;;243.27;77.80;;;3.80;99.90;;;;;;5011583;28;20037;-68
2022/12/01 04:32:35;;;;;;;229.50;74.10;;;3.80;99.90;;;;;;5015294;28;20049;-68
2022/12/01 04:35:02;;;;;;;223.00;71.35;;;3.90;99.90;;;;;;5010862;28;20128;-68
2022/12/01 04:37:29;;;;;;;210.07;65.93;;;4.00;99.90;;;;;;5016075;28;20482;-68
2022/12/01 04:39:55;;;;;;;208.35;64.70;;;3.80;99.90;;;;;;5014986;28;20041;-68
2022/12/01 04:42:22;;;;;;;205.35;65.00;;;3.80;99.90;;;;;;5013393;28;20037;-69
2022/12/01 04:44:49;;;;;;;200.63;65.68;;;3.90;99.90;;;;;;5015047;28;20049;-67
2022/12/01 04:47:15;;;;;;;192.07;61.47;;;3.80;99.90;;;;;;5014699;28;20041;-70
2022/12/01 04:49:42;;;;;;;190.73;67.30;;;3.80;99.90;;;;;;5014818;28;20052;-70
2022/12/01 04:52:08;;;;;;;202.30;68.13;;;3.70;99.90;;;;;;5010944;28;20038;-68
2022/12/01 04:54:35;;;;;;;219.52;71.10;;;3.80;99.90;;;;;;5017338;28;20041;-68
2022/12/01 04:57:02;;;;;;;202.93;69.50;;;3.80;99.90;;;;;;4993505;28;20281;-71
2022/12/01 04:59:29;;;;;;;225.98;73.25;;;3.80;99.90;;;;;;5018953;28;20041;-71
2022/12/01 05:01:55;;;;;;;208.95;66.93;;;3.80;99.90;;;;;;5017988;28;20065;-68
2022/12/01 05:04:22;;;;;;;214.13;74.47;;;3.80;99.90;;;;;;5039302;28;20060;-69
2022/12/01 05:06:49;;;;;;;216.07;72.53;;;3.80;99.90;;;;;;5034694;28;20055;-68
2022/12/01 05:09:15;;;;;;;215.73;70.03;;;3.90;99.90;;;;;;5025542;28;20046;-68
2022/12/01 05:11:43;;;;;;;200.75;66.82;;;4.00;99.90;;;;;;5015291;28;20470;-68
2022/12/01 05:14:10;;;;;;;198.40;72.35;;;3.90;99.90;;;;;;5013078;28;20041;-68
2022/12/01 05:16:37;;;;;;;207.82;70.80;;;3.90;99.90;;;;;;5016640;28;20618;-68
2022/12/01 05:21:50;;;;;;;210.70;70.28;;;4.00;99.90;;;;;;5013927;28;20503;-71
2022/12/01 05:24:18;;;;;;;219.18;72.45;;;3.90;99.90;;;;;;5012824;28;20056;-68
2022/12/01 05:26:45;;;;;;;238.38;77.30;;;3.90;99.90;;;;;;5015851;28;20438;-68
2022/12/01 05:29:12;;;;;;;250.05;74.72;;;3.80;99.90;;;;;;5011504;28;20060;-68
2022/12/01 05:31:39;;;;;;;238.52;76.22;;;3.80;99.90;;;;;;5015660;28;20033;-68
2022/12/01 05:34:06;;;;;;;231.13;71.07;;;3.90;99.90;;;;;;5006836;28;20045;-68
2022/12/01 05:36:33;;;;;;;241.82;76.28;;;3.90;99.90;;;;;;5015213;28;20038;-68
2022/12/01 05:38:59;;;;;;;238.48;77.60;;;3.80;99.90;;;;;;5012888;28;20117;-68
2022/12/01 05:41:26;;;;;;;228.43;74.97;;;3.70;99.90;;;;;;5008218;28;20420;-68
2022/12/01 05:43:53;;;;;;;256.20;78.38;;;3.80;99.90;;;;;;5013031;28;20041;-68
2022/12/01 05:46:19;;;;;;;236.32;73.78;;;3.70;99.90;;;;;;5013215;28;20038;-68
2022/12/01 05:48:46;;;;;;;240.45;80.85;;;3.70;99.90;;;;;;5015649;28;20335;-68
2022/12/01 05:51:14;;;;;;;232.77;75.38;;;3.70;99.90;;;;;;5010705;28;20530;-68
2022/12/01 05:53:42;;;;;;;241.48;76.45;;;3.60;99.90;;;;;;5015236;28;20037;-68
2022/12/01 05:56:09;;;;;;;238.52;81.30;;;3.70;99.90;;;;;;5008750;28;21466;-68
2022/12/01 05:58:35;;;;;;;237.23;72.78;;;3.70;99.90;;;;;;5015992;28;20052;-68
2022/12/01 06:01:02;;;;;;;244.30;78.70;;;3.70;99.90;;;;;;5005015;28;20042;-70
2022/12/01 06:03:29;;;;;;;240.18;80.88;;;3.70;99.90;;;;;;5015955;28;20277;-69
2022/12/01 06:05:56;;;;;;;238.07;75.35;;;3.80;99.90;;;;;;5012112;28;20471;-68
2022/12/01 06:08:22;;;;;;;226.13;74.75;;;3.70;99.90;;;;;;5012033;28;20129;-68
2022/12/01 06:10:49;;;;;;;211.10;71.22;;;3.70;99.90;;;;;;5013901;28;20056;-70
2022/12/01 06:13:16;;;;;;;241.65;76.18;;;3.60;99.90;;;;;;4993852;28;20068;-71
2022/12/01 06:15:42;;;;;;;232.27;74.00;;;3.60;99.90;;;;;;4996634;28;20045;-68
2022/12/01 06:18:09;;;;;;;228.52;72.53;;;3.70;99.90;;;;;;5009781;28;20038;-68
2022/12/01 06:20:36;;;;;;;232.05;78.65;;;3.70;99.90;;;;;;4992686;28;20045;-71
2022/12/01 06:23:02;;;;;;;241.40;79.05;;;3.70;99.90;;;;;;5008122;28;20313;-69
2022/12/01 06:25:29;;;;;;;247.85;80.88;;;3.70;99.90;;;;;;5010890;28;20710;-68
2022/12/01 06:27:57;;;;;;;234.57;76.40;;;3.70;99.90;;;;;;5009672;28;20072;-69
2022/12/01 06:30:24;;;;;;;226.68;73.10;;;3.70;99.90;;;;;;5012567;28;20045;-71
2022/12/01 06:32:51;;;;;;;231.27;75.05;;;3.60;99.90;;;;;;5015224;28;20435;-70
2022/12/01 06:35:18;;;;;;;233.82;76.53;;;3.60;99.90;;;;;;4991011;28;20282;-68
2022/12/01 06:37:44;;;;;;;232.45;79.38;;;3.60;99.90;;;;;;4997557;28;20045;-69
2022/12/01 06:40:11;;;;;;;242.10;80.75;;;3.60;99.90;;;;;;5008634;28;21433;-68
2022/12/01 06:42:38;;;;;;;248.05;81.82;;;3.60;99.90;;;;;;5011649;28;20289;-69
2022/12/01 06:45:05;;;;;;;274.13;82.70;;;3.60;99.90;;;;;;4990309;28;20049;-68
2022/12/01 06:47:32;;;;;;;267.20;80.80;;;3.50;99.90;;;;;;5012075;28;20072;-68
2022/12/01 06:49:59;;;;;;;263.23;82.47;;;3.40;99.90;;;;;;4989702;28;20504;-71
2022/12/01 06:52:25;;;;;;;246.27;76.82;;;3.40;99.90;;;;;;5010090;28;20683;-68
2022/12/01 06:54:52;;;;;;;267.83;87.45;;;3.40;99.90;;;;;;5010074;28;20046;-71
2022/12/01 06:57:19;;;;;;;257.17;79.43;;;3.30;99.90;;;;;;4995403;28;20041;-68
2022/12/01 06:59:46;;;;;;;244.68;74.65;;;3.30;99.90;;;;;;4978891;28;20041;-70
2022/12/01 07:02:14;;;;;;;242.05;77.57;;;3.30;99.90;;;;;;4987883;28;21433;-70
2022/12/01 07:04:40;;;;;;;262.75;84.60;;;3.20;99.90;;;;;;4997056;28;20065;-70
2022/12/01 07:07:07;;;;;;;248.38;78.03;;;3.30;99.90;;;;;;5008494;28;20046;-70
2022/12/01 07:09:34;;;;;;;255.50;80.05;;;3.30;99.90;;;;;;4994832;28;20045;-70
2022/12/01 07:12:00;;;;;;;255.18;77.95;;;3.30;99.90;;;;;;5008878;28;20507;-70
2022/12/01 07:14:27;;;;;;;239.18;78.97;;;3.30;99.90;;;;;;5012220;28;20057;-70
2022/12/01 07:16:53;;;;;;;252.88;80.32;;;3.30;99.90;;;;;;5007292;28;20033;-71
2022/12/01 07:19:21;;;;;;;272.02;83.05;;;3.30;99.90;;;;;;4994558;28;20345;-70
2022/12/01 07:21:47;;;;;;;274.73;82.30;;;3.30;99.90;;;;;;5007948;28;20052;-70
2022/12/01 07:24:14;;;;;;;278.02;85.30;;;3.30;99.90;;;;;;5006612;28;20205;-71
2022/12/01 07:26:42;;;;;;;286.88;86.03;;;3.40;99.90;;;;;;5008336;28;20381;-70
2022/12/01 07:29:09;;;;;;;291.45;86.38;;;3.40;99.90;;;;;;5007158;28;20420;-71
2022/12/01 07:31:37;;;;;;;273.30;84.75;;;3.50;99.90;;;;;;4994172;28;20188;-70
2022/12/01 07:34:04;;;;;;;267.48;81.63;;;3.50;99.90;;;;;;4987658;28;20096;-70
2022/12/01 07:36:31;;;;;;;277.52;81.13;;;3.50;99.90;;;;;;5007513;28;20097;-70
2022/12/01 07:38:58;;;;;;;272.45;83.93;;;3.40;99.90;;;;;;5009355;28;20048;-70
2022/12/01 07:41:25;;;;;;;277.58;81.78;;;3.40;99.90;;;;;;5011896;28;21676;-70
2022/12/01 07:43:53;;;;;;;274.92;83.43;;;3.40;99.90;;;;;;5007443;28;20137;-71
2022/12/01 07:46:23;;;;;;;275.90;82.97;;;3.50;99.90;;;;;;5008276;28;20047;-70
2022/12/01 07:48:51;;;;;;;284.92;83.82;;;3.40;99.90;;;;;;4992988;28;20728;-71
2022/12/01 07:51:20;;;;;;;294.40;87.47;;;3.40;99.90;;;;;;5004162;28;20044;-69
2022/12/01 07:53:48;;;;;;;305.13;98.07;;;3.30;99.90;;;;;;4993786;28;20049;-69
2022/12/01 07:56:16;;;;;;;298.38;88.47;;;3.40;99.90;;;;;;5004500;28;20061;-69
2022/12/01 07:58:43;;;;;;;294.88;82.28;;;3.40;99.90;;;;;;4991791;28;20050;-69
2022/12/01 08:01:15;;;;;;;304.63;85.95;;;3.30;99.90;;;;;;5004935;28;20045;-69
2022/12/01 08:03:41;;;;;;;324.70;93.53;;;3.20;99.90;;;;;;5011836;28;20041;-69
2022/12/01 08:06:09;;;;;;;330.90;95.63;;;3.30;99.90;;;;;;5008486;28;20038;-69
2022/12/01 08:08:37;;;;;;;350.67;95.90;;;3.30;99.90;;;;;;5016243;28;20067;-69
2022/12/01 08:11:08;;;;;;;322.30;90.65;;;3.40;99.90;;;;;;5008856;28;20038;-69
2022/12/01 08:13:35;;;;;;;309.45;93.65;;;3.40;99.90;;;;;;5012190;28;20053;-69
2022/12/01 08:16:03;;;;;;;297.13;88.72;;;3.50;99.90;;;;;;5008220;28;20034;-69
2022/12/01 08:18:32;;;;;;;292.80;85.55;;;3.60;99.90;;;;;;5011118;28;20048;-69
2022/12/01 08:20:59;;;;;;;283.23;84.32;;;3.50;99.90;;;;;;5008490;28;20339;-69
2022/12/01 08:23:25;;;;;;;257.73;82.13;;;3.50;99.90;;;;;;5010519;28;20038;-69
2022/12/01 08:25:52;;;;;;;261.30;83.45;;;3.40;99.90;;;;;;5016927;28;20045;-69
2022/12/01 08:28:20;;;;;;;272.63;86.47;;;3.20;99.90;;;;;;5014148;28;20060;-69
2022/12/01 08:30:46;;;;;;;268.63;80.22;;;3.20;99.90;;;;;;5014713;28;20048;-69
2022/12/01 08:33:13;;;;;;;276.02;83.93;;;3.10;99.90;;;;;;5011108;28;20057;-69
2022/12/01 08:35:40;;;;;;;287.10;88.43;;;3.10;99.90;;;;;;5014852;28;20045;-69
2022/12/01 08:38:08;;;;;;;297.52;89.38;;;3.10;99.90;;;;;;5010562;28;20045;-69
2022/12/01 08:40:35;;;;;;;292.25;88.35;;;3.10;99.90;;;;;;4995858;28;20045;-69
2022/12/01 08:43:01;;;;;;;286.98;88.68;;;3.10;99.90;;;;;;5010170;28;20045;-69
2022/12/01 08:45:28;;;;;;;290.45;87.85;;;3.10;99.90;;;;;;4993047;28;20053;-69
2022/12/01 08:47:57;;;;;;;274.65;83.78;;;3.20;99.90;;;;;;5017006;28;20052;-69
2022/12/01 08:50:27;;;;;;;269.17;80.55;;;3.10;99.90;;;;;;5008053;28;20045;-69
2022/12/01 08:52:54;;;;;;;241.75;76.32;;;3.00;99.90;;;;;;5012701;28;20050;-69
2022/12/01 08:55:21;;;;;;;272.05;83.57;;;3.00;99.90;;;;;;5012941;28;20045;-69
2022/12/01 08:57:47;;;;;;;281.45;86.10;;;3.00;99.90;;;;;;5014184;28;20121;-69
2022/12/01 09:00:15;;;;;;;450.27;101.25;;;3.00;99.90;;;;;;5008267;28;20064;-69
2022/12/01 09:02:41;;;;;;;292.70;87.47;;;3.00;99.90;;;;;;5011652;23;20049;-71
2022/12/01 09:05:09;;;;;;;280.10;89.80;;;3.10;99.90;;;;;;4968291;28;20218;-70
2022/12/01 09:07:36;;;;;;;285.58;88.60;;;3.20;99.90;;;;;;4950038;28;20046;-70
2022/12/01 09:10:03;;;;;;;290.42;89.20;;;3.20;99.90;;;;;;4993735;28;20042;-75
2022/12/01 09:12:30;;;;;;;283.88;89.72;;;3.20;99.90;;;;;;4977542;28;20042;-76
2022/12/01 09:14:57;;;;;;;279.85;81.38;;;3.10;99.90;;;;;;4987618;28;20412;-75
2022/12/01 09:17:23;;;;;;;277.27;89.53;;;3.10;99.90;;;;;;4981231;28;20045;-76
2022/12/01 09:19:50;;;;;;;259.38;88.57;;;3.10;99.90;;;;;;4965044;28;20489;-75
2022/12/01 09:22:17;;;;;;;235.80;75.15;;;3.00;99.90;;;;;;4951599;28;20046;-75
2022/12/01 09:24:44;;;;;;;242.32;86.22;;;3.00;99.90;;;;;;4964895;28;20089;-76
2022/12/01 09:27:12;;;;;;;220.32;81.53;;;3.00;99.90;;;;;;4969042;28;20053;-74
2022/12/01 09:29:38;;;;;;;211.43;77.05;;;3.00;99.90;;;;;;4966582;28;20527;-76
2022/12/01 09:32:05;;;;;;;191.38;65.30;;;2.90;99.90;;;;;;4955611;28;20133;-76
2022/12/01 09:34:32;;;;;;;201.85;72.50;;;2.80;99.90;;;;;;4986461;28;20097;-76
2022/12/01 09:36:58;;;;;;;199.45;72.32;;;2.90;99.90;;;;;;4977464;28;20048;-76
2022/12/01 09:39:25;;;;;;;200.27;70.82;;;2.80;99.90;;;;;;4969160;28;20038;-76
2022/12/01 09:42:03;;;;;;;222.20;76.57;;;2.90;99.90;;;;;;4950616;28;20436;-75
2022/12/01 09:44:44;;;;;;;195.80;68.90;;;3.00;99.90;;;;;;4986898;28;20046;-75
2022/12/01 09:47:24;;;;;;;204.50;68.68;;;2.90;99.90;;;;;;4971253;28;20539;-75
2022/12/01 09:50:00;;;;;;;188.82;64.95;;;2.90;99.90;;;;;;4965485;28;20049;-76
2022/12/01 09:52:33;;;;;;;207.55;71.70;;;3.00;99.90;;;;;;4970502;28;20080;-74
2022/12/01 09:55:00;;;;;;;193.98;58.42;;;3.00;99.90;;;;;;4975837;28;20364;-76
2022/12/01 09:57:36;;;;;;;233.18;74.78;;;2.90;99.90;;;;;;4969925;28;20034;-75
2022/12/01 10:00:19;;;;;;;230.55;70.22;;;2.80;99.90;;;;;;4984541;28;20042;-74
2022/12/01 10:03:04;;;;;;;222.75;71.15;;;2.80;99.90;;;;;;4984872;28;20133;-75
2022/12/01 10:05:50;;;;;;;208.55;66.50;;;2.70;99.90;;;;;;4954220;28;21267;-75
2022/12/01 10:08:42;;;;;;;219.10;72.82;;;2.80;99.90;;;;;;4973685;28;20052;-76
2022/12/01 10:11:38;;;;;;;210.35;68.25;;;2.80;99.90;;;;;;4959946;28;20047;-75
2022/12/01 10:14:13;;;;;;;220.20;71.53;;;2.80;99.90;;;;;;4947518;28;20467;-74
2022/12/01 10:17:10;;;;;;;208.75;69.43;;;3.00;99.90;;;;;;4968075;28;20057;-76
2022/12/01 10:19:58;;;;;;;217.57;73.38;;;3.00;99.90;;;;;;4974592;28;20037;-75
2022/12/01 10:23:03;;;;;;;182.38;66.97;;;2.90;99.90;;;;;;4979191;28;20604;-75
2022/12/01 10:25:48;;;;;;;186.88;79.50;;;2.90;99.90;;;;;;4964339;28;20142;-75
2022/12/01 10:28:27;;;;;;;;;;;3.10;99.90;;;;;;4968752;28;20051;-76
2022/12/01 10:31:02;;;;;;;144.90;59.28;;;3.20;99.90;;;;;;4971628;28;19925;-75
2022/12/01 10:33:41;;;;;;;149.30;61.90;;;3.00;99.90;;;;;;4969718;28;20416;-76
2022/12/01 10:36:09;;;;;;;162.55;69.20;;;2.90;99.90;;;;;;4971924;28;20042;-75
2022/12/01 10:38:38;;;;;;;157.15;65.43;;;2.80;99.90;;;;;;4970429;28;20153;-75
2022/12/01 10:41:10;;;;;;;151.77;61.25;;;2.90;99.90;;;;;;4971107;28;20058;-76
2022/12/01 10:43:41;;;;;;;147.07;60.50;;;2.90;99.90;;;;;;4964678;28;20140;-75
2022/12/01 10:46:22;;;;;;;153.73;60.45;;;2.90;99.90;;;;;;4978768;28;20042;-74
2022/12/01 10:48:54;;;;;;;157.68;62.58;;;2.90;99.90;;;;;;4968194;28;20133;-75
2022/12/01 10:51:21;;;;;;;141.10;57.72;;;2.90;99.90;;;;;;4971976;28;20281;-75
2022/12/01 10:53:49;;;;;;;149.45;58.10;;;2.90;99.90;;;;;;4978799;28;20415;-75
2022/12/01 10:56:18;;;;;;;157.02;61.03;;;2.80;99.90;;;;;;4969391;28;20054;-74
2022/12/01 10:58:49;;;;;;;163.05;62.67;;;2.70;99.90;;;;;;4993340;28;20029;-73
2022/12/01 11:01:20;;;;;;;145.63;56.10;;;2.70;99.90;;;;;;4977999;28;20287;-74
2022/12/01 11:04:12;;;;;;;157.02;60.17;;;2.70;99.90;;;;;;5004869;28;20049;-74
2022/12/01 11:06:39;;;;;;;141.73;55.50;;;2.70;99.90;;;;;;4968041;28;20518;-72
2022/12/01 11:09:22;;;;;;;136.60;55.95;;;2.50;99.90;;;;;;4976354;28;20046;-71
2022/12/01 11:11:58;;;;;;;130.68;52.92;;;2.40;99.90;;;;;;4991575;28;20042;-70
2022/12/01 11:14:49;;;;;;;117.35;47.83;;;2.50;99.90;;;;;;4983642;28;20076;-70
2022/12/01 11:17:28;;;;;;;122.72;53.50;;;2.60;99.90;;;;;;4962622;28;20294;-71
2022/12/01 11:19:55;;;;;;;114.63;49.53;;;2.60;99.90;;;;;;4985581;28;20037;-70
2022/12/01 11:22:31;;;;;;;124.50;52.72;;;2.60;99.90;;;;;;4970073;28;20047;-72
2022/12/01 11:25:03;;;;;;;120.05;47.53;;;2.60;99.90;;;;;;4974414;28;20046;-69
2022/12/01 11:27:48;;;;;;;119.18;48.42;;;2.50;99.90;;;;;;4971342;28;20085;-69
2022/12/01 11:30:26;;;;;;;148.18;54.78;;;2.40;99.90;;;;;;4966459;28;20046;-70
2022/12/01 11:32:56;;;;;;;155.15;53.67;;;2.40;99.90;;;;;;4992847;28;20038;-72
2022/12/01 11:35:26;;;;;;;143.18;51.38;;;2.40;99.90;;;;;;4958047;28;20055;-70
2022/12/01 11:37:56;;;;;;;157.13;53.45;;;2.40;99.90;;;;;;4980403;28;20137;-70
2022/12/01 11:40:54;;;;;;;141.88;50.33;;;2.40;99.90;;;;;;4987247;28;20038;-72
2022/12/01 11:43:29;;;;;;;146.07;50.00;;;2.30;99.90;;;;;;4965686;28;20120;-72
2022/12/01 11:46:00;;;;;;;168.65;54.15;;;2.20;99.90;;;;;;4966254;28;20408;-72
2022/12/01 11:48:29;;;;;;;175.95;54.42;;;2.20;99.90;;;;;;4957658;28;20046;-72
2022/12/01 11:51:05;;;;;;;180.73;59.85;;;2.30;99.90;;;;;;4966491;28;20038;-72
2022/12/01 11:53:35;;;;;;;178.00;57.92;;;2.40;99.90;;;;;;4974718;28;20485;-70
2022/12/01 11:56:23;;;;;;;181.80;55.97;;;2.30;99.90;;;;;;4964414;28;20062;-71
2022/12/01 11:59:05;;;;;;;192.98;59.28;;;2.40;99.90;;;;;;4988529;28;20045;-71
2022/12/01 12:01:56;;;;;;;177.65;59.05;;;2.50;99.90;;;;;;4960333;28;20042;-70
2022/12/01 12:04:41;;;;;;;182.25;57.08;;;2.60;99.90;;;;;;4963242;28;20535;-73
2022/12/01 12:07:32;;;;;;;194.93;60.45;;;2.60;99.90;;;;;;4978123;28;20053;-71
2022/12/01 12:10:02;;;;;;;179.43;55.97;;;2.50;99.90;;;;;;4985336;28;20046;-70
2022/12/01 12:12:50;;;;;;;184.45;58.13;;;2.50;99.90;;;;;;4959282;28;20039;-70
2022/12/01 12:15:53;;;;;;;207.02;61.88;;;2.50;99.90;;;;;;4968482;28;20076;-70
2022/12/01 12:19:11;;;;;;;192.13;57.97;;;2.60;99.90;;;;;;4962737;28;20354;-70
2022/12/01 12:21:40;;;;;;;186.13;54.45;;;2.50;99.90;;;;;;4921751;29;20051;-70
2022/12/01 12:24:25;;;;;;;204.07;62.15;;;2.40;99.90;;;;;;4923928;29;20059;-70
2022/12/01 12:26:58;;;;;;;206.70;55.53;;;2.40;99.90;;;;;;4955115;28;20074;-71
2022/12/01 12:29:42;;;;;;;196.80;59.45;;;2.40;99.90;;;;;;4985160;28;20060;-70
2022/12/01 12:32:24;;;;;;;204.77;60.55;;;2.30;99.90;;;;;;4985026;28;20046;-73
2022/12/01 12:34:59;;;;;;;202.38;56.67;;;2.40;99.90;;;;;;4993416;28;20508;-73
2022/12/01 12:37:37;;;;;;;202.85;59.75;;;2.50;99.90;;;;;;4963945;28;20043;-72
2022/12/01 12:40:26;;;;;;;207.43;61.65;;;2.50;99.90;;;;;;4992678;28;20628;-72
2022/12/01 12:43:30;;;;;;;204.50;62.80;;;2.60;99.90;;;;;;4984899;28;20038;-72
2022/12/01 12:46:06;;;;;;;206.32;57.92;;;2.50;99.90;;;;;;4970999;28;20035;-72
2022/12/01 12:48:51;;;;;;;241.13;75.82;;;2.50;99.90;;;;;;4961232;28;20223;-72
2022/12/01 12:51:54;;;;;;;221.38;60.53;;;2.60;99.90;;;;;;4955210;28;20048;-70
2022/12/01 12:54:25;;;;;;;191.40;55.15;;;2.50;99.90;;;;;;4982552;28;20145;-72
2022/12/01 12:57:06;;;;;;;206.55;59.47;;;2.50;99.90;;;;;;4978083;28;20045;-71